sensor_id;sensor_type;location;lat;lon;timestamp;temperature;humidity
36450;DHT22;22475;51.390;7.180;2022-11-15T00:00:30;12.80;93.50
36450;DHT22;22475;51.390;7.180;2022-11-15T00:02:57;12.90;93.60
36450;DHT22;22475;51.390;7.180;2022-11-15T00:05:25;12.80;93.50
36450;DHT22;22475;51.390;7.180;2022-11-15T00:07:52;12.80;93.60
36450;DHT22;22475;51.390;7.180;2022-11-15T00:10:18;12.90;93.60
36450;DHT22;22475;51.390;7.180;2022-11-15T00:12:45;12.90;93.60
36450;DHT22;22475;51.390;7.180;2022-11-15T00:15:12;12.90;93.60
36450;DHT22;22475;51.390;7.180;2022-11-15T00:17:38;12.90;93.60
36450;DHT22;22475;51.390;7.180;2022-11-15T00:20:06;12.90;93.60
36450;DHT22;22475;51.390;7.180;2022-11-15T00:22:34;13.00;93.60
36450;DHT22;22475;51.390;7.180;2022-11-15T00:25:01;13.00;93.70
36450;DHT22;22475;51.390;7.180;2022-11-15T00:27:28;13.00;93.70
36450;DHT22;22475;51.390;7.180;2022-11-15T00:29:55;13.00;93.60
36450;DHT22;22475;51.390;7.180;2022-11-15T00:32:22;13.00;93.70
36450;DHT22;22475;51.390;7.180;2022-11-15T00:34:49;13.00;93.70
36450;DHT22;22475;51.390;7.180;2022-11-15T00:37:15;13.10;93.70
36450;DHT22;22475;51.390;7.180;2022-11-15T00:39:44;13.10;93.70
36450;DHT22;22475;51.390;7.180;2022-11-15T00:42:10;13.10;93.70
36450;DHT22;22475;51.390;7.180;2022-11-15T00:44:37;13.10;93.60
36450;DHT22;22475;51.390;7.180;2022-11-15T00:47:04;13.10;93.60
36450;DHT22;22475;51.390;7.180;2022-11-15T00:49:30;13.10;93.70
36450;DHT22;22475;51.390;7.180;2022-11-15T00:51:57;13.20;93.70
36450;DHT22;22475;51.390;7.180;2022-11-15T00:54:24;13.20;93.70
36450;DHT22;22475;51.390;7.180;2022-11-15T00:56:52;13.20;93.70
36450;DHT22;22475;51.390;7.180;2022-11-15T00:59:19;13.20;93.70
36450;DHT22;22475;51.390;7.180;2022-11-15T01:01:45;13.20;93.70
36450;DHT22;22475;51.390;7.180;2022-11-15T01:04:12;13.20;93.70
36450;DHT22;22475;51.390;7.180;2022-11-15T01:06:40;13.20;93.70
36450;DHT22;22475;51.390;7.180;2022-11-15T01:09:06;13.20;93.70
36450;DHT22;22475;51.390;7.180;2022-11-15T01:11:33;13.30;93.70
36450;DHT22;22475;51.390;7.180;2022-11-15T01:14:01;13.30;93.70
36450;DHT22;22475;51.390;7.180;2022-11-15T01:16:28;13.20;93.60
36450;DHT22;22475;51.390;7.180;2022-11-15T01:18:54;13.30;93.60
36450;DHT22;22475;51.390;7.180;2022-11-15T01:21:21;13.30;93.60
36450;DHT22;22475;51.390;7.180;2022-11-15T01:23:48;13.30;93.60
36450;DHT22;22475;51.390;7.180;2022-11-15T01:26:15;13.30;93.60
36450;DHT22;22475;51.390;7.180;2022-11-15T01:28:42;13.30;93.60
36450;DHT22;22475;51.390;7.180;2022-11-15T01:31:12;13.30;93.50
36450;DHT22;22475;51.390;7.180;2022-11-15T01:33:39;13.30;93.50
36450;DHT22;22475;51.390;7.180;2022-11-15T01:36:07;13.40;93.50
36450;DHT22;22475;51.390;7.180;2022-11-15T01:38:35;13.40;93.50
36450;DHT22;22475;51.390;7.180;2022-11-15T01:41:02;13.40;93.50
36450;DHT22;22475;51.390;7.180;2022-11-15T01:43:31;13.40;93.50
36450;DHT22;22475;51.390;7.180;2022-11-15T01:46:00;13.40;93.50
36450;DHT22;22475;51.390;7.180;2022-11-15T01:48:32;13.40;93.50
36450;DHT22;22475;51.390;7.180;2022-11-15T01:51:02;13.40;93.50
36450;DHT22;22475;51.390;7.180;2022-11-15T01:53:32;13.40;93.50
36450;DHT22;22475;51.390;7.180;2022-11-15T01:56:01;13.40;93.50
36450;DHT22;22475;51.390;7.180;2022-11-15T01:58:29;13.40;93.50
36450;DHT22;22475;51.390;7.180;2022-11-15T02:00:56;13.40;93.50
36450;DHT22;22475;51.390;7.180;2022-11-15T02:03:26;13.40;93.50
36450;DHT22;22475;51.390;7.180;2022-11-15T02:05:57;13.40;93.50
36450;DHT22;22475;51.390;7.180;2022-11-15T02:08:24;13.40;93.50
36450;DHT22;22475;51.390;7.180;2022-11-15T02:10:51;13.50;93.50
36450;DHT22;22475;51.390;7.180;2022-11-15T02:13:18;13.50;93.50
36450;DHT22;22475;51.390;7.180;2022-11-15T02:15:48;13.40;93.50
36450;DHT22;22475;51.390;7.180;2022-11-15T02:18:26;13.40;93.50
36450;DHT22;22475;51.390;7.180;2022-11-15T02:21:15;13.50;93.60
36450;DHT22;22475;51.390;7.180;2022-11-15T02:27:03;13.50;93.60
36450;DHT22;22475;51.390;7.180;2022-11-15T02:29:59;13.50;93.60
36450;DHT22;22475;51.390;7.180;2022-11-15T02:32:33;13.50;93.60
36450;DHT22;22475;51.390;7.180;2022-11-15T02:35:09;13.50;93.50
36450;DHT22;22475;51.390;7.180;2022-11-15T02:37:44;13.50;93.50
36450;DHT22;22475;51.390;7.180;2022-11-15T02:40:20;13.50;93.50
36450;DHT22;22475;51.390;7.180;2022-11-15T02:42:54;13.50;93.60
36450;DHT22;22475;51.390;7.180;2022-11-15T02:45:43;13.50;93.50
36450;DHT22;22475;51.390;7.180;2022-11-15T02:48:13;13.50;93.50
36450;DHT22;22475;51.390;7.180;2022-11-15T02:50:41;13.50;93.50
36450;DHT22;22475;51.390;7.180;2022-11-15T02:53:09;13.50;93.50
36450;DHT22;22475;51.390;7.180;2022-11-15T02:55:37;13.50;93.50
36450;DHT22;22475;51.390;7.180;2022-11-15T02:58:24;13.50;93.50
36450;DHT22;22475;51.390;7.180;2022-11-15T03:01:00;13.50;93.50
36450;DHT22;22475;51.390;7.180;2022-11-15T03:03:44;13.50;93.50
36450;DHT22;22475;51.390;7.180;2022-11-15T03:06:22;13.50;93.50
36450;DHT22;22475;51.390;7.180;2022-11-15T03:08:57;13.60;93.80
36450;DHT22;22475;51.390;7.180;2022-11-15T03:11:29;13.60;93.50
36450;DHT22;22475;51.390;7.180;2022-11-15T03:14:00;13.60;93.50
36450;DHT22;22475;51.390;7.180;2022-11-15T03:16:34;13.50;93.50
36450;DHT22;22475;51.390;7.180;2022-11-15T03:19:10;13.60;93.50
36450;DHT22;22475;51.390;7.180;2022-11-15T03:21:39;13.60;93.50
36450;DHT22;22475;51.390;7.180;2022-11-15T03:24:08;13.60;93.50
36450;DHT22;22475;51.390;7.180;2022-11-15T03:26:37;13.60;93.60
36450;DHT22;22475;51.390;7.180;2022-11-15T03:29:09;13.60;93.50
36450;DHT22;22475;51.390;7.180;2022-11-15T03:31:42;13.60;93.60
36450;DHT22;22475;51.390;7.180;2022-11-15T03:34:19;13.60;93.60
36450;DHT22;22475;51.390;7.180;2022-11-15T03:36:49;13.60;93.60
36450;DHT22;22475;51.390;7.180;2022-11-15T03:39:17;13.60;93.60
36450;DHT22;22475;51.390;7.180;2022-11-15T03:41:48;13.60;93.60
36450;DHT22;22475;51.390;7.180;2022-11-15T03:44:23;13.60;93.60
36450;DHT22;22475;51.390;7.180;2022-11-15T03:46:59;13.60;93.60
36450;DHT22;22475;51.390;7.180;2022-11-15T03:49:33;13.60;93.60
36450;DHT22;22475;51.390;7.180;2022-11-15T03:52:01;13.60;93.60
36450;DHT22;22475;51.390;7.180;2022-11-15T03:54:29;13.60;93.60
36450;DHT22;22475;51.390;7.180;2022-11-15T03:56:55;13.60;93.60
36450;DHT22;22475;51.390;7.180;2022-11-15T03:59:22;13.60;93.60
36450;DHT22;22475;51.390;7.180;2022-11-15T04:01:49;13.60;93.60
36450;DHT22;22475;51.390;7.180;2022-11-15T04:04:16;13.60;93.70
36450;DHT22;22475;51.390;7.180;2022-11-15T04:06:44;13.60;93.60
36450;DHT22;22475;51.390;7.180;2022-11-15T04:09:11;13.60;93.70
36450;DHT22;22475;51.390;7.180;2022-11-15T04:11:37;13.60;93.60
36450;DHT22;22475;51.390;7.180;2022-11-15T04:14:04;13.60;93.60
36450;DHT22;22475;51.390;7.180;2022-11-15T04:16:31;13.60;93.60
36450;DHT22;22475;51.390;7.180;2022-11-15T04:18:58;13.60;93.60
36450;DHT22;22475;51.390;7.180;2022-11-15T04:21:43;13.60;93.60
36450;DHT22;22475;51.390;7.180;2022-11-15T04:24:27;13.60;93.60
36450;DHT22;22475;51.390;7.180;2022-11-15T04:26:54;13.60;93.60
36450;DHT22;22475;51.390;7.180;2022-11-15T04:29:21;13.70;93.60
36450;DHT22;22475;51.390;7.180;2022-11-15T04:32:02;13.70;93.60
36450;DHT22;22475;51.390;7.180;2022-11-15T04:34:29;13.70;93.60
36450;DHT22;22475;51.390;7.180;2022-11-15T04:36:58;13.70;93.60
36450;DHT22;22475;51.390;7.180;2022-11-15T04:39:42;13.70;93.60
36450;DHT22;22475;51.390;7.180;2022-11-15T04:42:09;13.70;93.60
36450;DHT22;22475;51.390;7.180;2022-11-15T04:44:37;13.70;93.60
36450;DHT22;22475;51.390;7.180;2022-11-15T04:47:04;13.70;93.60
36450;DHT22;22475;51.390;7.180;2022-11-15T04:49:31;13.70;93.60
36450;DHT22;22475;51.390;7.180;2022-11-15T04:51:59;13.70;93.60
36450;DHT22;22475;51.390;7.180;2022-11-15T04:54:26;13.70;94.00
36450;DHT22;22475;51.390;7.180;2022-11-15T04:56:52;13.70;93.60
36450;DHT22;22475;51.390;7.180;2022-11-15T04:59:19;13.70;93.60
36450;DHT22;22475;51.390;7.180;2022-11-15T05:01:46;13.70;93.60
36450;DHT22;22475;51.390;7.180;2022-11-15T05:04:12;13.70;93.60
36450;DHT22;22475;51.390;7.180;2022-11-15T05:06:44;13.70;93.70
36450;DHT22;22475;51.390;7.180;2022-11-15T05:09:13;13.70;93.60
36450;DHT22;22475;51.390;7.180;2022-11-15T05:11:40;13.70;93.70
36450;DHT22;22475;51.390;7.180;2022-11-15T05:14:07;13.70;93.70
36450;DHT22;22475;51.390;7.180;2022-11-15T05:16:33;13.80;93.70
36450;DHT22;22475;51.390;7.180;2022-11-15T05:19:01;13.70;93.70
36450;DHT22;22475;51.390;7.180;2022-11-15T05:21:27;13.70;93.70
36450;DHT22;22475;51.390;7.180;2022-11-15T05:23:54;13.70;93.70
36450;DHT22;22475;51.390;7.180;2022-11-15T05:26:22;13.80;93.70
36450;DHT22;22475;51.390;7.180;2022-11-15T05:28:52;13.80;93.70
36450;DHT22;22475;51.390;7.180;2022-11-15T05:31:20;13.70;93.70
36450;DHT22;22475;51.390;7.180;2022-11-15T05:33:47;13.80;93.70
36450;DHT22;22475;51.390;7.180;2022-11-15T05:36:18;13.80;93.60
36450;DHT22;22475;51.390;7.180;2022-11-15T05:38:47;13.80;93.70
36450;DHT22;22475;51.390;7.180;2022-11-15T05:41:15;13.70;93.70
36450;DHT22;22475;51.390;7.180;2022-11-15T05:43:45;13.80;93.70
36450;DHT22;22475;51.390;7.180;2022-11-15T05:46:13;13.70;93.70
36450;DHT22;22475;51.390;7.180;2022-11-15T05:48:41;13.70;93.80
36450;DHT22;22475;51.390;7.180;2022-11-15T05:51:09;13.80;93.80
36450;DHT22;22475;51.390;7.180;2022-11-15T05:53:38;13.80;93.80
36450;DHT22;22475;51.390;7.180;2022-11-15T05:56:05;13.80;93.80
36450;DHT22;22475;51.390;7.180;2022-11-15T05:58:32;13.80;93.90
36450;DHT22;22475;51.390;7.180;2022-11-15T06:01:00;13.80;93.90
36450;DHT22;22475;51.390;7.180;2022-11-15T06:03:27;13.80;93.90
36450;DHT22;22475;51.390;7.180;2022-11-15T06:05:55;13.70;93.80
36450;DHT22;22475;51.390;7.180;2022-11-15T06:08:22;13.80;93.80
36450;DHT22;22475;51.390;7.180;2022-11-15T06:10:49;13.70;93.80
36450;DHT22;22475;51.390;7.180;2022-11-15T06:13:15;13.80;93.80
36450;DHT22;22475;51.390;7.180;2022-11-15T06:15:42;13.80;93.90
36450;DHT22;22475;51.390;7.180;2022-11-15T06:18:10;13.80;93.80
36450;DHT22;22475;51.390;7.180;2022-11-15T06:20:37;13.80;93.80
36450;DHT22;22475;51.390;7.180;2022-11-15T06:23:04;13.80;93.80
36450;DHT22;22475;51.390;7.180;2022-11-15T06:25:31;13.80;93.80
36450;DHT22;22475;51.390;7.180;2022-11-15T06:27:59;13.80;93.80
36450;DHT22;22475;51.390;7.180;2022-11-15T06:30:27;13.80;93.80
36450;DHT22;22475;51.390;7.180;2022-11-15T06:32:59;13.80;93.80
36450;DHT22;22475;51.390;7.180;2022-11-15T06:35:29;13.80;93.80
36450;DHT22;22475;51.390;7.180;2022-11-15T06:37:56;13.80;93.80
36450;DHT22;22475;51.390;7.180;2022-11-15T06:40:22;13.80;93.80
36450;DHT22;22475;51.390;7.180;2022-11-15T06:42:49;13.80;93.80
36450;DHT22;22475;51.390;7.180;2022-11-15T06:45:16;13.80;93.80
36450;DHT22;22475;51.390;7.180;2022-11-15T06:47:46;13.80;93.80
36450;DHT22;22475;51.390;7.180;2022-11-15T06:50:13;13.80;93.80
36450;DHT22;22475;51.390;7.180;2022-11-15T06:52:41;13.80;93.80
36450;DHT22;22475;51.390;7.180;2022-11-15T06:55:08;13.80;93.80
36450;DHT22;22475;51.390;7.180;2022-11-15T06:57:35;13.80;93.90
36450;DHT22;22475;51.390;7.180;2022-11-15T07:00:03;13.80;93.90
36450;DHT22;22475;51.390;7.180;2022-11-15T07:02:30;13.80;93.80
36450;DHT22;22475;51.390;7.180;2022-11-15T07:04:57;13.90;93.90
36450;DHT22;22475;51.390;7.180;2022-11-15T07:07:24;13.90;93.80
36450;DHT22;22475;51.390;7.180;2022-11-15T07:09:52;13.80;93.80
36450;DHT22;22475;51.390;7.180;2022-11-15T07:12:19;13.90;93.80
36450;DHT22;22475;51.390;7.180;2022-11-15T07:14:45;13.90;93.80
36450;DHT22;22475;51.390;7.180;2022-11-15T07:17:12;13.90;93.80
36450;DHT22;22475;51.390;7.180;2022-11-15T07:19:39;13.90;93.80
36450;DHT22;22475;51.390;7.180;2022-11-15T07:22:05;13.80;93.80
36450;DHT22;22475;51.390;7.180;2022-11-15T07:24:32;13.90;93.80
36450;DHT22;22475;51.390;7.180;2022-11-15T07:27:00;13.90;93.80
36450;DHT22;22475;51.390;7.180;2022-11-15T07:29:27;13.90;93.80
36450;DHT22;22475;51.390;7.180;2022-11-15T07:31:54;13.80;93.80
36450;DHT22;22475;51.390;7.180;2022-11-15T07:34:21;13.90;93.80
36450;DHT22;22475;51.390;7.180;2022-11-15T07:36:49;13.90;93.80
36450;DHT22;22475;51.390;7.180;2022-11-15T07:39:15;13.90;93.80
36450;DHT22;22475;51.390;7.180;2022-11-15T07:41:42;13.90;93.70
36450;DHT22;22475;51.390;7.180;2022-11-15T07:44:11;13.90;93.70
36450;DHT22;22475;51.390;7.180;2022-11-15T07:46:38;13.90;93.80
36450;DHT22;22475;51.390;7.180;2022-11-15T07:49:05;13.90;93.70
36450;DHT22;22475;51.390;7.180;2022-11-15T07:51:31;13.90;93.70
36450;DHT22;22475;51.390;7.180;2022-11-15T07:53:58;13.80;93.60
36450;DHT22;22475;51.390;7.180;2022-11-15T07:56:25;13.90;93.70
36450;DHT22;22475;51.390;7.180;2022-11-15T07:58:52;13.80;93.60
36450;DHT22;22475;51.390;7.180;2022-11-15T08:01:20;13.80;93.70
36450;DHT22;22475;51.390;7.180;2022-11-15T08:03:46;13.80;93.70
36450;DHT22;22475;51.390;7.180;2022-11-15T08:06:13;13.80;93.70
36450;DHT22;22475;51.390;7.180;2022-11-15T08:08:40;13.80;93.60
36450;DHT22;22475;51.390;7.180;2022-11-15T08:11:06;13.80;93.70
36450;DHT22;22475;51.390;7.180;2022-11-15T08:13:33;13.80;93.70
36450;DHT22;22475;51.390;7.180;2022-11-15T08:16:01;13.80;93.70
36450;DHT22;22475;51.390;7.180;2022-11-15T08:18:29;13.80;93.70
36450;DHT22;22475;51.390;7.180;2022-11-15T08:20:59;13.80;93.60
36450;DHT22;22475;51.390;7.180;2022-11-15T08:23:26;13.80;93.60
36450;DHT22;22475;51.390;7.180;2022-11-15T08:25:53;13.80;93.60
36450;DHT22;22475;51.390;7.180;2022-11-15T08:28:24;13.90;93.60
36450;DHT22;22475;51.390;7.180;2022-11-15T08:30:51;13.80;93.60
36450;DHT22;22475;51.390;7.180;2022-11-15T08:33:18;13.90;94.00
36450;DHT22;22475;51.390;7.180;2022-11-15T08:35:46;13.90;93.60
36450;DHT22;22475;51.390;7.180;2022-11-15T08:38:13;13.80;93.60
36450;DHT22;22475;51.390;7.180;2022-11-15T08:40:40;13.80;93.60
36450;DHT22;22475;51.390;7.180;2022-11-15T08:43:06;13.80;93.60
36450;DHT22;22475;51.390;7.180;2022-11-15T08:45:34;13.90;93.60
36450;DHT22;22475;51.390;7.180;2022-11-15T08:48:02;13.80;93.50
36450;DHT22;22475;51.390;7.180;2022-11-15T08:50:29;13.90;93.50
36450;DHT22;22475;51.390;7.180;2022-11-15T08:52:57;13.90;93.50
36450;DHT22;22475;51.390;7.180;2022-11-15T08:55:24;13.80;93.50
36450;DHT22;22475;51.390;7.180;2022-11-15T08:57:51;13.90;93.50
36450;DHT22;22475;51.390;7.180;2022-11-15T09:00:18;13.90;93.50
36450;DHT22;22475;51.390;7.180;2022-11-15T09:02:45;13.90;93.50
36450;DHT22;22475;51.390;7.180;2022-11-15T09:05:12;13.80;93.50
36450;DHT22;22475;51.390;7.180;2022-11-15T09:07:40;13.90;93.50
36450;DHT22;22475;51.390;7.180;2022-11-15T09:10:08;13.80;93.40
36450;DHT22;22475;51.390;7.180;2022-11-15T09:12:35;13.80;93.30
36450;DHT22;22475;51.390;7.180;2022-11-15T09:15:02;13.80;93.30
36450;DHT22;22475;51.390;7.180;2022-11-15T09:17:29;13.80;93.30
36450;DHT22;22475;51.390;7.180;2022-11-15T09:19:56;13.80;93.30
36450;DHT22;22475;51.390;7.180;2022-11-15T09:22:22;13.80;93.30
36450;DHT22;22475;51.390;7.180;2022-11-15T09:24:49;13.80;93.30
36450;DHT22;22475;51.390;7.180;2022-11-15T09:27:17;13.80;93.30
36450;DHT22;22475;51.390;7.180;2022-11-15T09:29:44;13.80;93.30
36450;DHT22;22475;51.390;7.180;2022-11-15T09:32:11;13.80;93.30
36450;DHT22;22475;51.390;7.180;2022-11-15T09:34:38;13.80;93.30
36450;DHT22;22475;51.390;7.180;2022-11-15T09:37:04;13.90;93.30
36450;DHT22;22475;51.390;7.180;2022-11-15T09:39:31;13.80;93.20
36450;DHT22;22475;51.390;7.180;2022-11-15T09:42:09;13.80;93.20
36450;DHT22;22475;51.390;7.180;2022-11-15T09:44:52;13.90;93.20
36450;DHT22;22475;51.390;7.180;2022-11-15T09:47:45;13.90;93.10
36450;DHT22;22475;51.390;7.180;2022-11-15T09:50:20;13.90;93.20
36450;DHT22;22475;51.390;7.180;2022-11-15T09:52:55;13.90;93.10
36450;DHT22;22475;51.390;7.180;2022-11-15T09:55:31;13.90;93.20
36450;DHT22;22475;51.390;7.180;2022-11-15T09:58:07;13.90;93.20
36450;DHT22;22475;51.390;7.180;2022-11-15T10:00:45;13.80;93.10
36450;DHT22;22475;51.390;7.180;2022-11-15T10:03:14;13.90;93.10
36450;DHT22;22475;51.390;7.180;2022-11-15T10:05:44;13.90;93.10
36450;DHT22;22475;51.390;7.180;2022-11-15T10:08:27;13.90;93.00
36450;DHT22;22475;51.390;7.180;2022-11-15T10:10:58;13.90;93.00
36450;DHT22;22475;51.390;7.180;2022-11-15T10:13:26;13.90;93.00
36450;DHT22;22475;51.390;7.180;2022-11-15T10:15:59;13.90;93.10
36450;DHT22;22475;51.390;7.180;2022-11-15T10:18:34;13.90;93.00
36450;DHT22;22475;51.390;7.180;2022-11-15T10:21:09;13.90;93.00
36450;DHT22;22475;51.390;7.180;2022-11-15T10:23:38;13.90;92.90
36450;DHT22;22475;51.390;7.180;2022-11-15T10:26:09;13.90;92.90
36450;DHT22;22475;51.390;7.180;2022-11-15T10:28:37;13.90;92.90
36450;DHT22;22475;51.390;7.180;2022-11-15T10:31:22;13.90;92.90
36450;DHT22;22475;51.390;7.180;2022-11-15T10:33:49;13.90;92.80
36450;DHT22;22475;51.390;7.180;2022-11-15T10:36:18;13.90;92.90
36450;DHT22;22475;51.390;7.180;2022-11-15T10:38:57;13.90;92.90
36450;DHT22;22475;51.390;7.180;2022-11-15T10:41:34;13.90;92.90
36450;DHT22;22475;51.390;7.180;2022-11-15T10:44:19;13.90;92.80
36450;DHT22;22475;51.390;7.180;2022-11-15T10:47:04;13.90;92.80
36450;DHT22;22475;51.390;7.180;2022-11-15T10:49:33;13.90;92.80
36450;DHT22;22475;51.390;7.180;2022-11-15T10:52:02;13.90;92.80
36450;DHT22;22475;51.390;7.180;2022-11-15T10:54:33;13.90;92.70
36450;DHT22;22475;51.390;7.180;2022-11-15T10:57:04;13.90;92.80
36450;DHT22;22475;51.390;7.180;2022-11-15T10:59:33;14.00;92.80
36450;DHT22;22475;51.390;7.180;2022-11-15T11:02:28;14.00;92.80
36450;DHT22;22475;51.390;7.180;2022-11-15T11:04:56;14.00;92.80
36450;DHT22;22475;51.390;7.180;2022-11-15T11:07:24;14.00;92.70
36450;DHT22;22475;51.390;7.180;2022-11-15T11:09:58;14.00;92.60
36450;DHT22;22475;51.390;7.180;2022-11-15T11:12:28;14.00;92.50
36450;DHT22;22475;51.390;7.180;2022-11-15T11:14:57;14.00;92.50
36450;DHT22;22475;51.390;7.180;2022-11-15T11:17:31;14.00;92.50
36450;DHT22;22475;51.390;7.180;2022-11-15T11:20:04;14.00;92.60
36450;DHT22;22475;51.390;7.180;2022-11-15T11:22:41;14.00;92.50
36450;DHT22;22475;51.390;7.180;2022-11-15T11:25:30;14.00;92.50
36450;DHT22;22475;51.390;7.180;2022-11-15T11:28:12;14.00;92.40
36450;DHT22;22475;51.390;7.180;2022-11-15T11:30:49;14.00;92.40
36450;DHT22;22475;51.390;7.180;2022-11-15T11:33:23;14.00;92.40
36450;DHT22;22475;51.390;7.180;2022-11-15T11:36:02;14.00;92.40
36450;DHT22;22475;51.390;7.180;2022-11-15T11:38:42;14.00;92.30
36450;DHT22;22475;51.390;7.180;2022-11-15T11:41:15;14.00;92.30
36450;DHT22;22475;51.390;7.180;2022-11-15T11:43:52;14.10;92.60
36450;DHT22;22475;51.390;7.180;2022-11-15T11:46:44;14.00;92.00
36450;DHT22;22475;51.390;7.180;2022-11-15T11:49:20;14.10;92.00
36450;DHT22;22475;51.390;7.180;2022-11-15T11:51:51;14.10;91.90
36450;DHT22;22475;51.390;7.180;2022-11-15T11:54:22;14.10;91.80
36450;DHT22;22475;51.390;7.180;2022-11-15T11:56:52;14.10;91.80
36450;DHT22;22475;51.390;7.180;2022-11-15T11:59:25;14.10;91.80
36450;DHT22;22475;51.390;7.180;2022-11-15T12:01:54;14.10;91.70
36450;DHT22;22475;51.390;7.180;2022-11-15T12:04:26;14.10;91.50
36450;DHT22;22475;51.390;7.180;2022-11-15T12:06:58;14.10;91.50
36450;DHT22;22475;51.390;7.180;2022-11-15T12:09:31;14.10;91.60
36450;DHT22;22475;51.390;7.180;2022-11-15T12:12:06;14.10;91.60
36450;DHT22;22475;51.390;7.180;2022-11-15T12:14:41;14.10;91.60
36450;DHT22;22475;51.390;7.180;2022-11-15T12:17:10;14.10;91.60
36450;DHT22;22475;51.390;7.180;2022-11-15T12:19:38;14.10;91.70
36450;DHT22;22475;51.390;7.180;2022-11-15T12:22:12;14.10;91.70
36450;DHT22;22475;51.390;7.180;2022-11-15T12:24:41;14.10;91.70
36450;DHT22;22475;51.390;7.180;2022-11-15T12:27:17;14.10;91.60
36450;DHT22;22475;51.390;7.180;2022-11-15T12:29:46;14.10;91.50
36450;DHT22;22475;51.390;7.180;2022-11-15T12:32:23;14.20;91.50
36450;DHT22;22475;51.390;7.180;2022-11-15T12:34:53;14.20;91.30
36450;DHT22;22475;51.390;7.180;2022-11-15T12:40:30;14.20;91.10
36450;DHT22;22475;51.390;7.180;2022-11-15T12:43:00;14.20;91.10
36450;DHT22;22475;51.390;7.180;2022-11-15T12:45:29;14.20;91.10
36450;DHT22;22475;51.390;7.180;2022-11-15T12:51:10;14.20;91.10
36450;DHT22;22475;51.390;7.180;2022-11-15T12:53:37;14.20;91.20
36450;DHT22;22475;51.390;7.180;2022-11-15T12:56:21;14.20;91.20
36450;DHT22;22475;51.390;7.180;2022-11-15T12:58:53;14.20;91.30
36450;DHT22;22475;51.390;7.180;2022-11-15T13:04:33;14.20;91.30
36450;DHT22;22475;51.390;7.180;2022-11-15T13:07:03;14.20;91.30
36450;DHT22;22475;51.390;7.180;2022-11-15T13:09:58;14.20;91.20
36450;DHT22;22475;51.390;7.180;2022-11-15T13:12:51;14.20;91.30
36450;DHT22;22475;51.390;7.180;2022-11-15T13:15:38;14.20;91.30
36450;DHT22;22475;51.390;7.180;2022-11-15T13:18:28;14.20;91.30
36450;DHT22;22475;51.390;7.180;2022-11-15T13:20:55;14.20;91.30
36450;DHT22;22475;51.390;7.180;2022-11-15T13:23:24;14.20;91.30
36450;DHT22;22475;51.390;7.180;2022-11-15T13:26:08;14.20;91.30
36450;DHT22;22475;51.390;7.180;2022-11-15T13:28:38;14.20;91.20
36450;DHT22;22475;51.390;7.180;2022-11-15T13:31:21;14.20;91.20
36450;DHT22;22475;51.390;7.180;2022-11-15T13:33:49;14.20;91.20
36450;DHT22;22475;51.390;7.180;2022-11-15T13:36:20;14.20;91.20
36450;DHT22;22475;51.390;7.180;2022-11-15T13:38:57;14.20;91.20
36450;DHT22;22475;51.390;7.180;2022-11-15T13:41:25;14.20;91.20
36450;DHT22;22475;51.390;7.180;2022-11-15T13:43:54;14.20;91.20
36450;DHT22;22475;51.390;7.180;2022-11-15T13:46:22;14.20;91.20
36450;DHT22;22475;51.390;7.180;2022-11-15T13:48:53;14.20;91.20
36450;DHT22;22475;51.390;7.180;2022-11-15T13:51:33;14.20;91.50
36450;DHT22;22475;51.390;7.180;2022-11-15T13:54:08;14.20;91.20
36450;DHT22;22475;51.390;7.180;2022-11-15T13:56:41;14.30;91.30
36450;DHT22;22475;51.390;7.180;2022-11-15T13:59:09;14.20;91.20
36450;DHT22;22475;51.390;7.180;2022-11-15T14:01:37;14.30;91.20
36450;DHT22;22475;51.390;7.180;2022-11-15T14:04:04;14.20;91.10
36450;DHT22;22475;51.390;7.180;2022-11-15T14:06:31;14.20;91.10
36450;DHT22;22475;51.390;7.180;2022-11-15T14:09:14;14.20;91.20
36450;DHT22;22475;51.390;7.180;2022-11-15T14:11:51;14.20;91.50
36450;DHT22;22475;51.390;7.180;2022-11-15T14:14:20;14.20;91.10
36450;DHT22;22475;51.390;7.180;2022-11-15T14:16:49;14.30;91.10
36450;DHT22;22475;51.390;7.180;2022-11-15T14:19:35;14.30;91.10
36450;DHT22;22475;51.390;7.180;2022-11-15T14:22:14;14.30;91.20
36450;DHT22;22475;51.390;7.180;2022-11-15T14:24:43;14.30;91.20
36450;DHT22;22475;51.390;7.180;2022-11-15T14:27:24;14.30;91.20
36450;DHT22;22475;51.390;7.180;2022-11-15T14:29:51;14.30;91.20
36450;DHT22;22475;51.390;7.180;2022-11-15T14:32:20;14.30;91.20
36450;DHT22;22475;51.390;7.180;2022-11-15T14:34:47;14.30;91.20
36450;DHT22;22475;51.390;7.180;2022-11-15T14:37:20;14.30;91.20
36450;DHT22;22475;51.390;7.180;2022-11-15T14:39:47;14.30;91.20
36450;DHT22;22475;51.390;7.180;2022-11-15T14:42:14;14.30;91.20
36450;DHT22;22475;51.390;7.180;2022-11-15T14:44:42;14.30;91.30
36450;DHT22;22475;51.390;7.180;2022-11-15T14:47:09;14.30;91.30
36450;DHT22;22475;51.390;7.180;2022-11-15T14:49:36;14.30;91.30
36450;DHT22;22475;51.390;7.180;2022-11-15T14:52:09;14.30;91.30
36450;DHT22;22475;51.390;7.180;2022-11-15T14:54:42;14.30;91.30
36450;DHT22;22475;51.390;7.180;2022-11-15T14:57:09;14.30;91.30
36450;DHT22;22475;51.390;7.180;2022-11-15T14:59:36;14.30;91.20
36450;DHT22;22475;51.390;7.180;2022-11-15T15:02:09;14.30;91.20
36450;DHT22;22475;51.390;7.180;2022-11-15T15:04:39;14.30;91.20
36450;DHT22;22475;51.390;7.180;2022-11-15T15:07:06;14.30;91.10
36450;DHT22;22475;51.390;7.180;2022-11-15T15:09:33;14.30;91.10
36450;DHT22;22475;51.390;7.180;2022-11-15T15:11:59;14.30;91.00
36450;DHT22;22475;51.390;7.180;2022-11-15T15:14:26;14.30;91.00
36450;DHT22;22475;51.390;7.180;2022-11-15T15:16:53;14.30;91.00
36450;DHT22;22475;51.390;7.180;2022-11-15T15:19:21;14.30;91.00
36450;DHT22;22475;51.390;7.180;2022-11-15T15:21:47;14.30;91.00
36450;DHT22;22475;51.390;7.180;2022-11-15T15:24:14;14.30;91.00
36450;DHT22;22475;51.390;7.180;2022-11-15T15:26:41;14.30;91.10
36450;DHT22;22475;51.390;7.180;2022-11-15T15:29:09;14.30;91.10
36450;DHT22;22475;51.390;7.180;2022-11-15T15:31:35;14.30;91.10
36450;DHT22;22475;51.390;7.180;2022-11-15T15:34:02;14.30;91.10
36450;DHT22;22475;51.390;7.180;2022-11-15T15:36:30;14.30;91.00
36450;DHT22;22475;51.390;7.180;2022-11-15T15:38:57;14.30;91.00
36450;DHT22;22475;51.390;7.180;2022-11-15T15:41:24;14.30;91.10
36450;DHT22;22475;51.390;7.180;2022-11-15T15:43:50;14.30;91.10
36450;DHT22;22475;51.390;7.180;2022-11-15T15:46:18;14.30;91.20
36450;DHT22;22475;51.390;7.180;2022-11-15T15:48:46;14.30;91.20
36450;DHT22;22475;51.390;7.180;2022-11-15T15:51:12;14.30;91.20
36450;DHT22;22475;51.390;7.180;2022-11-15T15:53:40;14.30;91.20
36450;DHT22;22475;51.390;7.180;2022-11-15T15:56:08;14.30;91.20
36450;DHT22;22475;51.390;7.180;2022-11-15T15:58:35;14.30;91.20
36450;DHT22;22475;51.390;7.180;2022-11-15T16:01:02;14.30;91.20